Main page
METAR-TAF:

METAR-TAF

Airports :

Guernsey Airport

Guernsey,

latitude: 49-26N, longitude: 002-36W, elevation: 102 m

Current weather observation

The report was made 1 hour and 11 minutes ago, at 21:50 UTC
Wind 12 kt from the South
Temperature 9°C
Humidity 81%
Pressure 995 hPa
Visibility 10 km or more
Few clouds at a height of 1400 ft

METAR: EGJB 212150Z 18012KT 9999 FEW014 09/06 Q0995

Time: 23:01 (23:01 UTC)

Forecast

The report was made 2 hours and 59 minutes ago, at 20:02 UTC
Forecast valid from 21 at 21 UTC to 22 at 06 UTC
Wind 16 kt from the South
Visibility 10 km or more
Scattered clouds at a height of 1700 ft
Temporary
from 21 at 21 UTC to 22 at 06 UTC
Wind 20 kt from the South with gusts up to 30 kt
Broken clouds at a height of 1400 ft
Probability 40% :
Temporary
from 21 at 21 UTC to 22 at 06 UTC
Visibility: 6000 m
Broken clouds at a height of 1000 ft, Cumulonimbus.
rain showers

TAF: EGJB 212002Z 2121/2206 18016KT 9999 SCT017 TEMPO 2121/2206 18020G30KT BKN014 PROB40 TEMPO 2121/2206 6000 SHRA BKN010CB

Weather observations and forecasts of more than 4000 airports (METAR and TAF reports).

The available stations are represented by yellow and red dots on the map.

Hover mouse over dot to see the name of the station.

Then click to see weather observations and forecasts.

To change the map : click on the green buttons with a black cross to zoom in, on the green button with a dash to zoom out, or on the green arrows for adjacent maps.


METAR-TAF: